Rincon, PR

5:56 AM AST on October 20, 2014 (GMT -0400)
Barrio Puntas | Change Station
CLOSE
Current Station
Personal Weather Station
Location: Rincon, PR
Elevation: 0 ft
Nearby Weather Stations

Elev 0 ft 18.37 °N, 67.25 °W | Updated 7 seconds ago

Clear
Clear
75.1 °F
Feels Like 74 °F
N
0.0
Wind Variable Wind from SSE
Gusts 0.0 mph

Today
High -- | Low -- °F
--% Chance of Precip.
Yesterday
High -- | Low -- °F
Precip. -- in
6:24 AM 6:03 PM
Waning Crescent, 12% visible
Pressure 29.93 in
Visibility 10.0 miles
Clouds Clear
Heat Index 74 °F
Dew Point -11 °F
Humidity 3%
Rainfall 0.00 in
Snow Depth Not available.
UV 0 out of 12
Pollen Not available.
Air Quality Not available.
Flu Activity Local Activity
METAR TJBQ 200750Z 15004KT 10SM SKC 24/22 A2993 RMK TWR CLOSED UNITL 1100Z.

More Conditions Fewer Conditions

Pressure 29.93 in
Visibility 10.0 miles
Clouds Clear
Heat Index 74 °F
Dew Point -11 °F
Humidity 3%
Rainfall 0.00 in
Snow Depth Not available.
UV 0 out of 12
Pollen Not available.
Air Quality Not available.
Flu Activity Local Activity
METAR TJBQ 200750Z 15004KT 10SM SKC 24/22 A2993 RMK TWR CLOSED UNITL 1100Z.

More Conditions Fewer Conditions

10-Day Weather Forecast

Almanac

Astronomy

Oct. 20, 2014 Rise Set
Actual Time 6:24 AM AST 6:03 PM AST
Civil Twilight 6:02 AM AST 6:25 PM AST
Nautical Twilight 5:36 AM AST 6:50 PM AST
Astronomical Twilight 5:11 AM AST 7:16 PM AST
Moon 3:35 AM AST 4:01 PM AST
Length of Visible Light 12h 23m
Length of Day
11h 38m
Waning Crescent, 12% of the Moon is Illuminated
Today
Waning Crescent
Oct 23
New
Oct 30
First Quarter
Nov 6
Full
Nov 14
Last Quarter

Community

WunderPhotos

Upload Photos

1,763,325 photos uploaded!

Nearby

Snow Depth

Station Depth Elevation
No new snow has been reported.

Earthquake Activity

City Distance Mag. Time & Date
No recent earthquake activity has been reported nearby.
Minimum magnitude displayed is 2.5.

Coastal Water Temperatures

Place Temperature
Mayaguez, PR 84.9 °F
Magueyes Islands, PR 86.0 °F
Mona Island, PR 79.0 °F

Nearby Weather Stations